This is the latest recevied weather packets stored in our database for station/object K3SV. If no packets are shown the sender has not sent any weather packets the latest 10 day(s).
| Time | Temp. | Humidity | Pressure | Rain* | Wind** | Luminosity | Snow |
|---|---|---|---|---|---|---|---|
| 1777837593 | 26.11° C | 55% | 1016.1 hPa | 0 mm | - | 752 W/m² | - |
| 1777837288 | 25.56° C | 55% | 1016.1 hPa | 0 mm | - | 291 W/m² | - |
| 1777836986 | 26.11° C | 54% | 1016.1 hPa | 0 mm | - | 211 W/m² | - |
| 1777836681 | 26.67° C | 51% | 1016.4 hPa | 0 mm | - | 286 W/m² | - |
| 1777836377 | 26.67° C | 49% | 1016.5 hPa | 0 mm | - | 847 W/m² | - |
| 1777836072 | 25.56° C | 56% | 1016.6 hPa | 0 mm | - | 413 W/m² | - |
| 1777835770 | 25.56° C | 55% | 1016.8 hPa | 0 mm | - | 366 W/m² | - |
| 1777835466 | 25.56° C | 56% | 1016.9 hPa | 0 mm | - | 841 W/m² | - |
| 1777835164 | 26.11° C | 55% | 1016.6 hPa | 0 mm | - | 468 W/m² | - |
| 1777834860 | 25.56° C | 56% | 1017.1 hPa | 0 mm | - | 312 W/m² | - |
| 1777834557 | 26.11° C | 56% | 1017 hPa | 0 mm | - | 255 W/m² | - |
| 1777834257 | 26.67° C | 54% | 1017 hPa | 0 mm | - | 867 W/m² | - |
| 1777833952 | 25° C | 57% | 1017.1 hPa | 0 mm | - | 847 W/m² | - |
| 1777833649 | 25.56° C | 57% | 1017.4 hPa | 0 mm | - | 214 W/m² | - |
| 1777833346 | 26.11° C | 58% | 1017.4 hPa | 0 mm | - | 573 W/m² | - |
| 1777833043 | 26.11° C | 56% | 1017.2 hPa | 0 mm | - | 802 W/m² | - |
| 1777832741 | 25° C | 61% | 1017.6 hPa | 0 mm | - | 779 W/m² | - |
| 1777832439 | 24.44° C | 62% | 1017.6 hPa | 0 mm | - | 218 W/m² | - |
| 1777832130 | 25° C | 62% | 1017.6 hPa | 0 mm | - | 862 W/m² | - |
| 1777831826 | 25° C | 61% | 1017.5 hPa | 0 mm | - | 219 W/m² | - |
| 1777831524 | 25° C | 60% | 1017.4 hPa | 0 mm | - | 888 W/m² | - |
| 1777831220 | 25° C | 61% | 1017.6 hPa | 0 mm | - | 260 W/m² | - |
| 1777830918 | 25° C | 62% | 1017.8 hPa | 0 mm | - | 766 W/m² | - |
| 1777830609 | 25° C | 63% | 1018 hPa | 0 mm | - | 498 W/m² | - |
| 1777830307 | 25.56° C | 61% | 1017.9 hPa | 0 mm | - | 897 W/m² | - |
* Rain latest hour (hover to see other rain measurements)
** Current wind speed in m/s (hover to see current wind gust speed)